Time;durP1;ratioP1;P1;durP2;ratioP2;P2;SDS_P1;SDS_P2;PMS_P1;PMS_P2;Temp;Humidity;BMP_temperature;BMP_pressure;BME280_temperature;BME280_humidity;BME280_pressure;Samples;Min_cycle;Max_cycle;Signal;HPM_P1;HPM_P2
2022/06/28 00:02:01;;;;;;;10.90;7.20;;;22.30;99.90;;;;;;4996894;28;20282;-71
2022/06/28 00:04:28;;;;;;;13.07;7.67;;;22.20;99.90;;;;;;4996578;28;20228;-71
2022/06/28 00:06:55;;;;;;;11.20;7.47;;;22.30;99.90;;;;;;4996505;28;20220;-71
2022/06/28 00:09:23;;;;;;;8.90;7.20;;;22.20;99.90;;;;;;4980798;28;20208;-71
2022/06/28 00:11:51;;;;;;;11.73;7.87;;;22.20;99.90;;;;;;4996140;28;20232;-71
2022/06/28 00:17:04;;;;;;;12.63;7.43;;;22.10;99.90;;;;;;5029335;28;20192;-71
2022/06/28 00:19:31;;;;;;;12.03;7.57;;;22.20;99.90;;;;;;5014004;28;20274;-72
2022/06/28 00:21:59;;;;;;;11.47;7.13;;;22.20;99.90;;;;;;5029086;28;20195;-71
2022/06/28 00:24:26;;;;;;;10.30;7.23;;;22.10;99.90;;;;;;5013847;28;20197;-73
2022/06/28 00:26:54;;;;;;;10.63;7.60;;;22.10;99.90;;;;;;4996282;28;20235;-71
2022/06/28 00:29:20;;;;;;;11.40;6.80;;;22.00;99.90;;;;;;5028673;28;20287;-71
2022/06/28 00:31:48;;;;;;;9.47;7.10;;;22.10;99.90;;;;;;5028787;28;20282;-73
2022/06/28 00:34:15;;;;;;;9.33;7.40;;;22.00;99.90;;;;;;4995460;28;20197;-72
2022/06/28 00:36:42;;;;;;;9.37;7.07;;;22.10;99.90;;;;;;4995996;28;20196;-74
2022/06/28 00:39:09;;;;;;;10.80;7.53;;;22.10;99.90;;;;;;4996125;28;20661;-72
2022/06/28 00:41:37;;;;;;;10.43;7.20;;;22.00;99.90;;;;;;4995927;28;20216;-74
2022/06/28 00:44:04;;;;;;;8.93;6.90;;;22.00;99.90;;;;;;4996062;28;20601;-72
2022/06/28 00:46:35;;;;;;;9.73;7.17;;;22.10;99.90;;;;;;5013543;28;20219;-73
2022/06/28 00:49:02;;;;;;;11.67;7.57;;;22.00;99.90;;;;;;4996207;28;20184;-71
2022/06/28 00:51:30;;;;;;;9.90;7.40;;;22.00;99.90;;;;;;5028746;28;20231;-71
2022/06/28 00:53:57;;;;;;;12.50;7.67;;;22.00;99.90;;;;;;5013271;28;20227;-70
2022/06/28 00:56:24;;;;;;;10.33;7.07;;;22.00;99.90;;;;;;4995788;28;20708;-71
2022/06/28 00:58:52;;;;;;;7.80;7.00;;;21.90;99.90;;;;;;4995782;28;20259;-71
2022/06/28 01:01:20;;;;;;;10.07;7.37;;;22.00;99.90;;;;;;4995750;28;20302;-71
2022/06/28 01:03:47;;;;;;;9.97;7.17;;;21.90;99.90;;;;;;4995852;28;20337;-69
2022/06/28 01:06:15;;;;;;;9.83;7.33;;;21.90;99.90;;;;;;4995718;28;20785;-70
2022/06/28 01:08:46;;;;;;;9.80;7.27;;;21.90;99.90;;;;;;4995580;28;20736;-70
2022/06/28 01:11:20;;;;;;;10.37;8.07;;;21.80;99.90;;;;;;5013025;28;20192;-71
2022/06/28 01:14:07;;;;;;;11.07;7.90;;;21.80;99.90;;;;;;4995332;28;20286;-70
2022/06/28 01:16:36;;;;;;;9.27;7.40;;;21.80;99.90;;;;;;4995731;28;20223;-69
2022/06/28 01:19:07;;;;;;;10.10;7.60;;;21.80;99.90;;;;;;4995636;28;20212;-69
2022/06/28 01:21:38;;;;;;;15.17;8.17;;;21.70;99.90;;;;;;4995347;28;20246;-70
2022/06/28 01:24:07;;;;;;;9.63;7.73;;;21.70;99.90;;;;;;4995595;28;20200;-74
2022/06/28 01:26:35;;;;;;;8.80;7.30;;;21.70;99.90;;;;;;4995970;28;20658;-70
2022/06/28 01:29:02;;;;;;;9.27;7.60;;;21.60;99.90;;;;;;4995637;28;20207;-71
2022/06/28 01:31:29;;;;;;;10.10;7.90;;;21.60;99.90;;;;;;4995916;28;20196;-69
2022/06/28 01:33:56;;;;;;;8.93;7.67;;;21.60;99.90;;;;;;4995306;28;20246;-70
2022/06/28 01:36:23;;;;;;;13.20;7.10;;;21.60;99.90;;;;;;4995587;28;20239;-69
2022/06/28 01:38:50;;;;;;;12.63;7.63;;;21.50;99.90;;;;;;4995304;28;20311;-70
2022/06/28 01:41:32;;;;;;;10.40;8.03;;;21.50;99.90;;;;;;5012891;28;20262;-70
2022/06/28 01:44:04;;;;;;;10.50;7.57;;;21.40;99.90;;;;;;4995433;28;20240;-70
2022/06/28 01:46:32;;;;;;;10.97;7.97;;;21.40;99.90;;;;;;5029759;28;20231;-69
2022/06/28 01:48:59;;;;;;;13.37;7.80;;;21.40;99.90;;;;;;4999443;28;20228;-70
2022/06/28 01:51:26;;;;;;;14.27;8.07;;;21.30;99.90;;;;;;5016610;28;20192;-70
2022/06/28 01:53:53;;;;;;;12.07;8.30;;;21.30;99.90;;;;;;5016483;28;20196;-70
2022/06/28 01:56:20;;;;;;;11.33;8.23;;;21.30;99.90;;;;;;5016398;28;20611;-71
2022/06/28 01:58:47;;;;;;;10.13;7.83;;;21.30;99.90;;;;;;5031809;28;20226;-70
2022/06/28 02:01:15;;;;;;;11.77;8.03;;;21.30;99.90;;;;;;5031875;28;20757;-71
2022/06/28 02:03:41;;;;;;;10.03;8.10;;;21.30;99.90;;;;;;5016432;28;20322;-71
2022/06/28 02:06:09;;;;;;;10.97;8.07;;;21.20;99.90;;;;;;4998749;28;20220;-72
2022/06/28 02:08:36;;;;;;;16.53;8.07;;;21.20;99.90;;;;;;4999125;28;20299;-71
2022/06/28 02:11:04;;;;;;;10.80;8.03;;;21.20;99.90;;;;;;5031277;28;20295;-71
2022/06/28 02:13:32;;;;;;;9.33;7.90;;;21.10;99.90;;;;;;5016353;28;20230;-70
2022/06/28 02:15:58;;;;;;;11.97;7.83;;;21.10;99.90;;;;;;4998584;28;20200;-71
2022/06/28 02:18:25;;;;;;;9.70;8.07;;;21.10;99.90;;;;;;5016133;28;20739;-71
2022/06/28 02:20:54;;;;;;;11.90;7.50;;;21.10;99.90;;;;;;5014675;28;20732;-71
2022/06/28 02:23:21;;;;;;;9.47;7.57;;;21.00;99.90;;;;;;5031142;28;20560;-71
2022/06/28 02:25:48;;;;;;;10.10;8.00;;;21.00;99.90;;;;;;4998439;28;20291;-70
2022/06/28 02:28:15;;;;;;;10.57;8.30;;;21.00;99.90;;;;;;5031364;28;20303;-71
2022/06/28 02:30:42;;;;;;;10.27;8.10;;;21.00;99.90;;;;;;4998159;28;20202;-70
2022/06/28 02:33:09;;;;;;;10.57;8.17;;;20.90;99.90;;;;;;5031352;28;20290;-70
2022/06/28 02:41:07;;;;;;;10.20;8.00;;;20.90;99.90;;;;;;5030934;28;20633;-71
2022/06/28 02:43:34;;;;;;;10.53;8.03;;;20.90;99.90;;;;;;4997993;28;20622;-72
2022/06/28 02:46:01;;;;;;;12.10;8.07;;;20.90;99.90;;;;;;4981960;28;20192;-72
2022/06/28 02:48:31;;;;;;;10.60;7.97;;;20.90;99.90;;;;;;4998032;28;20652;-71
2022/06/28 02:50:58;;;;;;;8.83;7.87;;;20.90;99.90;;;;;;4998259;28;20275;-72
2022/06/28 02:53:25;;;;;;;10.37;8.23;;;20.90;99.90;;;;;;4997779;28;20204;-72
2022/06/28 02:55:52;;;;;;;9.67;8.23;;;20.80;99.90;;;;;;4997552;28;20193;-72
2022/06/28 02:58:19;;;;;;;10.60;7.90;;;20.90;99.90;;;;;;4996800;28;20244;-72
2022/06/28 03:00:46;;;;;;;12.30;8.30;;;20.90;99.90;;;;;;5015476;28;20200;-72
2022/06/28 03:03:14;;;;;;;11.20;8.47;;;20.90;99.90;;;;;;4997661;28;20231;-72
2022/06/28 03:05:41;;;;;;;12.47;8.53;;;20.90;99.90;;;;;;4997761;28;20207;-73
2022/06/28 03:08:09;;;;;;;11.23;8.60;;;20.90;99.90;;;;;;4997535;28;20234;-71
2022/06/28 03:10:36;;;;;;;12.47;7.90;;;20.90;99.90;;;;;;5014989;28;20184;-70
2022/06/28 03:13:03;;;;;;;10.57;7.90;;;20.90;99.90;;;;;;4997044;28;20291;-70
2022/06/28 03:15:30;;;;;;;11.00;7.50;;;20.90;99.90;;;;;;4997955;28;20204;-71
2022/06/28 03:17:58;;;;;;;9.00;7.90;;;20.90;99.90;;;;;;4997710;28;20192;-71
2022/06/28 03:20:25;;;;;;;12.10;7.77;;;20.90;99.90;;;;;;4997532;28;20605;-70
2022/06/28 03:22:52;;;;;;;10.93;7.60;;;20.90;99.90;;;;;;5030030;28;20196;-70
2022/06/28 03:25:19;;;;;;;9.50;8.10;;;21.00;99.90;;;;;;4997414;28;20204;-71
2022/06/28 03:27:46;;;;;;;11.40;8.13;;;20.90;99.90;;;;;;5014741;28;20247;-71
2022/06/28 03:30:14;;;;;;;10.63;8.50;;;21.00;99.90;;;;;;4997945;28;20235;-71
2022/06/28 03:32:41;;;;;;;10.60;7.83;;;21.00;99.90;;;;;;4997038;28;20283;-71
2022/06/28 03:35:09;;;;;;;11.77;7.90;;;21.00;99.90;;;;;;4997125;28;20276;-72
2022/06/28 03:37:37;;;;;;;8.90;7.70;;;21.00;99.90;;;;;;5014705;28;20243;-71
2022/06/28 03:40:04;;;;;;;10.53;8.20;;;21.10;99.90;;;;;;4996798;28;20226;-70
2022/06/28 03:42:31;;;;;;;9.87;7.80;;;21.20;99.90;;;;;;4996670;28;20287;-71
2022/06/28 03:44:58;;;;;;;10.30;7.97;;;21.20;99.90;;;;;;4980910;28;20226;-71
2022/06/28 03:47:25;;;;;;;9.07;7.40;;;21.20;99.90;;;;;;5014418;28;20173;-72
2022/06/28 03:49:52;;;;;;;11.03;8.03;;;21.20;99.90;;;;;;5030072;28;20200;-71
2022/06/28 03:52:28;;;;;;;11.67;8.33;;;21.20;99.90;;;;;;5029384;28;20315;-72
2022/06/28 03:54:59;;;;;;;13.23;8.50;;;21.20;99.90;;;;;;5014827;28;20243;-71
2022/06/28 03:57:26;;;;;;;10.33;8.33;;;21.30;99.90;;;;;;5014184;28;20196;-71
2022/06/28 03:59:56;;;;;;;10.47;7.93;;;21.40;99.90;;;;;;5014394;28;20230;-71
2022/06/28 04:02:23;;;;;;;10.80;8.97;;;21.30;99.90;;;;;;5029388;28;20247;-74
2022/06/28 04:04:50;;;;;;;9.87;8.40;;;21.40;99.90;;;;;;5013939;28;20230;-72
2022/06/28 04:07:17;;;;;;;14.40;8.53;;;21.40;99.90;;;;;;4996376;28;20274;-72
2022/06/28 04:09:44;;;;;;;12.10;8.20;;;21.40;99.90;;;;;;5014015;28;20631;-71
2022/06/28 04:12:11;;;;;;;11.30;8.20;;;21.40;99.90;;;;;;5029423;28;20208;-73
2022/06/28 04:14:38;;;;;;;9.83;8.23;;;21.40;99.90;;;;;;5014328;28;20255;-72
2022/06/28 04:17:05;;;;;;;11.23;8.20;;;21.50;99.90;;;;;;5029469;28;20668;-72
2022/06/28 04:19:32;;;;;;;9.30;8.30;;;21.50;99.90;;;;;;4996478;28;20220;-72
2022/06/28 04:22:00;;;;;;;9.50;8.10;;;21.60;99.90;;;;;;4995868;28;20223;-72
2022/06/28 04:24:26;;;;;;;13.27;8.67;;;21.60;99.90;;;;;;4996428;28;20208;-74
2022/06/28 04:26:53;;;;;;;14.63;8.07;;;21.60;99.90;;;;;;5013649;28;20749;-69
2022/06/28 04:29:20;;;;;;;11.47;7.97;;;21.70;99.90;;;;;;4996769;28;20214;-71
2022/06/28 04:31:47;;;;;;;10.20;8.13;;;21.70;99.90;;;;;;5013960;28;20227;-71
2022/06/28 04:34:14;;;;;;;10.23;7.57;;;21.80;99.90;;;;;;4995914;28;20638;-71
2022/06/28 04:36:41;;;;;;;11.37;8.50;;;21.90;99.90;;;;;;4995948;28;20223;-71
2022/06/28 04:39:08;;;;;;;12.10;8.23;;;21.90;99.90;;;;;;4995996;28;20289;-71
2022/06/28 04:41:41;;;;;;;10.27;7.33;;;22.00;99.90;;;;;;5013473;28;20571;-71
2022/06/28 04:44:08;;;;;;;8.57;7.27;;;22.10;99.90;;;;;;5028841;28;20243;-71
2022/06/28 04:46:35;;;;;;;10.90;7.80;;;22.10;99.90;;;;;;5013630;28;20560;-71
2022/06/28 04:49:07;;;;;;;9.43;7.40;;;22.20;99.90;;;;;;5028798;28;20555;-71
2022/06/28 04:51:34;;;;;;;10.50;7.90;;;22.30;99.90;;;;;;5013245;28;20271;-70
2022/06/28 04:54:01;;;;;;;11.77;7.73;;;22.40;99.90;;;;;;4995871;28;20204;-69
2022/06/28 04:56:29;;;;;;;9.30;7.90;;;22.40;99.90;;;;;;4995577;28;20204;-69
2022/06/28 04:58:56;;;;;;;11.27;8.43;;;22.40;99.90;;;;;;4995772;28;20713;-69
2022/06/28 05:01:23;;;;;;;9.87;7.37;;;22.50;99.90;;;;;;4995874;28;20287;-70
2022/06/28 05:03:50;;;;;;;14.33;8.17;;;22.60;99.90;;;;;;5028397;28;20300;-69
2022/06/28 05:06:17;;;;;;;17.03;7.90;;;22.60;99.90;;;;;;5013569;28;20299;-69
2022/06/28 05:08:52;;;;;;;10.33;8.17;;;22.70;99.90;;;;;;5013119;28;20199;-69
2022/06/28 05:11:33;;;;;;;11.03;7.80;;;22.80;99.90;;;;;;5013053;28;20200;-69
2022/06/28 05:14:00;;;;;;;13.27;8.60;;;22.90;99.90;;;;;;4995711;28;20196;-69
2022/06/28 05:16:27;;;;;;;10.27;7.80;;;23.00;99.90;;;;;;5013141;28;20280;-69
2022/06/28 05:18:54;;;;;;;12.90;8.17;;;23.00;99.90;;;;;;5028397;28;20220;-70
2022/06/28 05:21:21;;;;;;;11.40;8.13;;;23.10;99.90;;;;;;4996879;28;20199;-71
2022/06/28 05:23:48;;;;;;;9.40;7.70;;;23.20;99.90;;;;;;4980935;28;20558;-70
2022/06/28 05:26:15;;;;;;;13.45;8.75;;;23.30;99.90;;;;;;4997268;28;20655;-71
2022/06/28 05:28:42;;;;;;;10.70;8.15;;;23.30;99.90;;;;;;4980313;28;20220;-70
2022/06/28 05:31:09;;;;;;;12.43;7.93;;;23.50;99.90;;;;;;4979891;28;20196;-70
2022/06/28 05:33:36;;;;;;;11.83;7.97;;;23.50;99.90;;;;;;4979779;28;20207;-71
2022/06/28 05:36:03;;;;;;;8.67;7.77;;;23.60;99.90;;;;;;4980405;28;20607;-71
2022/06/28 05:38:31;;;;;;;10.77;8.23;;;23.70;99.90;;;;;;4979819;28;20682;-70
2022/06/28 05:40:58;;;;;;;11.77;8.63;;;23.70;99.90;;;;;;4979939;28;20197;-70
2022/06/28 05:43:24;;;;;;;11.53;8.53;;;23.90;99.90;;;;;;4979452;28;20590;-70
2022/06/28 05:45:51;;;;;;;12.50;7.87;;;23.90;99.90;;;;;;4980068;28;20304;-71
2022/06/28 05:48:18;;;;;;;11.55;8.07;;;24.00;99.90;;;;;;4979536;28;20295;-70
2022/06/28 05:50:47;;;;;;;9.88;8.40;;;24.10;99.90;;;;;;4997128;28;20193;-69
2022/06/28 05:53:14;;;;;;;10.55;7.75;;;24.10;99.90;;;;;;4979689;28;20316;-69
2022/06/28 05:55:42;;;;;;;11.32;8.23;;;24.30;99.90;;;;;;4979377;28;20296;-70
2022/06/28 05:58:09;;;;;;;12.80;8.75;;;24.40;99.90;;;;;;4979506;28;20231;-71
2022/06/28 06:00:37;;;;;;;10.30;7.82;;;24.50;99.90;;;;;;4996739;28;20267;-72
2022/06/28 06:03:05;;;;;;;11.73;7.50;;;24.60;99.90;;;;;;4979310;28;20355;-72
2022/06/28 06:05:32;;;;;;;15.85;8.77;;;24.70;99.90;;;;;;4979898;28;20219;-74
2022/06/28 06:07:59;;;;;;;16.05;8.02;;;24.80;99.90;;;;;;4979396;28;20303;-74
2022/06/28 06:10:26;;;;;;;13.85;8.32;;;24.90;99.90;;;;;;4979740;28;20264;-74
2022/06/28 06:12:53;;;;;;;10.73;8.07;;;25.10;99.90;;;;;;4996599;28;20299;-71
2022/06/28 06:15:20;;;;;;;10.38;7.70;;;25.20;99.90;;;;;;4979598;28;20300;-80
2022/06/28 06:17:47;;;;;;;10.38;8.00;;;25.30;99.90;;;;;;4979059;28;20292;-71
2022/06/28 06:20:14;;;;;;;11.93;8.00;;;25.20;99.90;;;;;;4979257;28;20259;-71
2022/06/28 06:22:41;;;;;;;9.48;7.75;;;25.20;99.90;;;;;;4979115;28;20213;-71
2022/06/28 06:25:09;;;;;;;14.60;7.40;;;25.40;99.90;;;;;;4979138;28;20211;-74
2022/06/28 06:27:36;;;;;;;11.35;8.07;;;25.50;99.90;;;;;;4979101;28;20207;-79
2022/06/28 06:30:06;;;;;;;12.15;7.70;;;25.60;99.90;;;;;;4979080;28;20651;-70
2022/06/28 06:32:33;;;;;;;12.45;7.75;;;25.70;99.90;;;;;;4977614;28;20291;-77
2022/06/28 06:35:00;;;;;;;18.23;8.40;;;25.80;99.90;;;;;;4998850;28;20283;-75
2022/06/28 06:37:27;;;;;;;10.35;7.45;;;26.00;99.90;;;;;;5031055;28;20725;-74
2022/06/28 06:39:54;;;;;;;11.82;7.93;;;26.10;99.90;;;;;;5015969;28;20223;-74
2022/06/28 06:42:21;;;;;;;10.68;7.43;;;26.10;99.90;;;;;;5030890;28;20208;-75
2022/06/28 06:44:48;;;;;;;11.75;7.65;;;26.30;99.90;;;;;;5015247;28;20665;-73
2022/06/28 06:47:15;;;;;;;12.10;7.95;;;26.40;99.90;;;;;;4997893;28;20208;-72
2022/06/28 06:49:42;;;;;;;11.55;7.68;;;26.50;99.90;;;;;;4997839;28;20200;-72
2022/06/28 06:52:09;;;;;;;12.90;7.95;;;26.70;99.90;;;;;;4998197;28;20204;-72
2022/06/28 06:54:37;;;;;;;11.25;7.85;;;26.70;99.90;;;;;;4997683;28;20363;-73
2022/06/28 06:57:04;;;;;;;12.60;7.57;;;26.70;99.90;;;;;;5030567;28;20200;-73
2022/06/28 06:59:31;;;;;;;10.20;7.40;;;26.70;99.90;;;;;;4997494;28;20224;-72
2022/06/28 07:01:58;;;;;;;12.25;7.22;;;26.90;99.90;;;;;;4997379;28;20291;-71
2022/06/28 07:04:25;;;;;;;9.95;7.35;;;26.90;99.90;;;;;;5015159;28;20234;-71
2022/06/28 07:07:00;;;;;;;10.32;6.97;;;26.90;99.90;;;;;;4997934;28;20238;-72
2022/06/28 07:09:28;;;;;;;10.95;7.22;;;27.00;99.90;;;;;;4997629;28;20250;-72
2022/06/28 07:11:55;;;;;;;10.80;7.43;;;27.10;99.90;;;;;;5015367;28;20667;-72
2022/06/28 07:14:22;;;;;;;9.38;7.00;;;27.20;99.90;;;;;;5030040;28;20570;-72
2022/06/28 07:16:49;;;;;;;11.85;7.45;;;27.10;99.90;;;;;;5030086;28;20215;-72
2022/06/28 07:19:17;;;;;;;9.13;7.00;;;27.30;99.90;;;;;;4997590;28;20699;-73
2022/06/28 07:21:44;;;;;;;10.52;7.10;;;27.20;99.90;;;;;;4997515;28;20200;-72
2022/06/28 07:24:13;;;;;;;10.02;7.32;;;27.40;99.90;;;;;;4996912;28;20204;-74
2022/06/28 07:26:40;;;;;;;9.68;6.85;;;27.50;99.90;;;;;;4997235;28;20195;-74
2022/06/28 07:29:07;;;;;;;7.70;6.38;;;27.60;99.90;;;;;;5029675;28;20280;-73
2022/06/28 07:31:40;;;;;;;10.25;6.63;;;27.70;99.90;;;;;;4997129;28;20207;-72
2022/06/28 07:34:07;;;;;;;9.23;6.43;;;27.80;99.90;;;;;;5014560;28;20207;-70
2022/06/28 07:36:37;;;;;;;10.32;6.60;;;27.90;99.90;;;;;;4997199;28;20745;-70
2022/06/28 07:39:04;;;;;;;14.80;7.15;;;28.00;99.90;;;;;;4997077;28;20239;-71
2022/06/28 07:41:31;;;;;;;10.05;6.03;;;28.10;99.90;;;;;;4996740;28;20563;-70
2022/06/28 07:43:59;;;;;;;8.30;6.35;;;28.10;99.90;;;;;;4996160;28;20287;-74
2022/06/28 07:46:26;;;;;;;7.88;5.70;;;28.20;99.90;;;;;;5013623;28;20200;-75
2022/06/28 07:48:54;;;;;;;6.68;5.78;;;28.40;99.90;;;;;;4996776;28;20184;-71
2022/06/28 07:54:06;;;;;;;9.40;5.80;;;28.60;99.90;;;;;;5029787;28;20208;-72
2022/06/28 07:56:34;;;;;;;7.38;5.28;;;28.80;99.90;;;;;;5012374;28;20254;-72
2022/06/28 07:59:01;;;;;;;7.40;5.50;;;28.80;99.90;;;;;;4996435;28;20196;-72
2022/06/28 08:01:28;;;;;;;6.55;5.22;;;28.90;99.90;;;;;;5029375;28;20214;-71
2022/06/28 08:03:55;;;;;;;7.47;5.30;;;28.90;99.90;;;;;;5014039;28;20684;-71
2022/06/28 08:06:22;;;;;;;8.25;5.20;;;28.90;99.90;;;;;;4996426;28;20224;-73
2022/06/28 08:09:10;;;;;;;6.03;5.10;;;29.00;99.90;;;;;;5110686;27;20544;-74
2022/06/28 08:11:39;;;;;;;7.13;5.30;;;29.00;99.90;;;;;;5110745;28;20181;-74
2022/06/28 08:14:11;;;;;;;6.25;4.97;;;29.10;99.90;;;;;;5075795;28;20521;-74
2022/06/28 08:16:39;;;;;;;7.70;4.97;;;29.30;99.90;;;;;;5110426;28;20204;-72
2022/06/28 08:19:09;;;;;;;7.90;4.93;;;29.30;99.90;;;;;;5092937;28;20193;-71
2022/06/28 08:21:38;;;;;;;10.77;5.35;;;29.40;99.90;;;;;;5110991;28;20189;-72
2022/06/28 08:24:06;;;;;;;6.78;4.50;;;29.50;99.90;;;;;;5110948;28;20185;-72
2022/06/28 08:26:40;;;;;;;8.25;4.82;;;29.50;99.90;;;;;;5092579;28;20267;-72
2022/06/28 08:29:12;;;;;;;5.03;4.25;;;29.90;99.90;;;;;;5092121;28;20200;-73
2022/06/28 08:31:40;;;;;;;6.30;4.50;;;30.60;99.70;;;;;;5094447;28;20200;-73
2022/06/28 08:34:08;;;;;;;6.43;4.43;;;31.60;98.00;;;;;;5111114;28;20225;-74
2022/06/28 08:36:35;;;;;;;6.53;4.13;;;32.30;94.90;;;;;;5112197;28;20189;-74
2022/06/28 08:39:03;;;;;;;5.68;4.05;;;32.70;92.40;;;;;;5109995;28;20668;-73
2022/06/28 08:41:33;;;;;;;5.25;3.53;;;33.10;90.80;;;;;;5092699;28;20197;-74
2022/06/28 08:44:01;;;;;;;10.18;4.00;;;33.50;87.50;;;;;;5112384;28;20189;-74
2022/06/28 08:46:28;;;;;;;5.85;4.10;;;33.20;84.70;;;;;;5109275;28;20243;-73
2022/06/28 08:49:14;;;;;;;4.68;3.30;;;33.40;85.60;;;;;;5110185;28;20611;-77
2022/06/28 08:51:42;;;;;;;7.00;3.58;;;33.60;80.60;;;;;;5110361;28;20192;-74
2022/06/28 08:54:10;;;;;;;6.28;3.72;;;33.80;79.30;;;;;;5110341;28;20235;-74
2022/06/28 08:56:39;;;;;;;8.95;3.97;;;34.20;78.60;;;;;;5093687;28;20201;-74
2022/06/28 08:59:13;;;;;;;5.50;4.13;;;34.50;76.30;;;;;;5091561;28;20828;-73
2022/06/28 09:01:40;;;;;;;5.60;3.70;;;34.70;75.60;;;;;;5109142;28;20653;-74
2022/06/28 09:04:11;;;;;;;5.18;3.88;;;34.60;74.30;;;;;;5091276;28;20189;-74
2022/06/28 09:06:38;;;;;;;6.22;4.30;;;34.70;73.90;;;;;;5091720;28;20228;-74
2022/06/28 09:09:07;;;;;;;7.25;4.50;;;34.80;72.70;;;;;;5110326;28;20681;-74
2022/06/28 09:11:46;;;;;;;6.10;4.05;;;34.90;72.20;;;;;;5110018;28;20247;-73
2022/06/28 09:14:30;;;;;;;8.48;4.10;;;34.90;71.20;;;;;;5092271;28;20269;-73
2022/06/28 09:17:15;;;;;;;7.32;4.15;;;35.10;70.70;;;;;;5092256;28;20231;-75
2022/06/28 09:19:45;;;;;;;9.02;4.43;;;35.50;71.20;;;;;;5082285;28;20229;-74
2022/06/28 09:22:29;;;;;;;5.30;4.53;;;35.70;69.80;;;;;;5079679;28;20259;-74
2022/06/28 09:24:56;;;;;;;6.55;4.65;;;35.90;69.50;;;;;;5078521;28;20197;-73
2022/06/28 09:27:34;;;;;;;7.93;4.70;;;35.80;68.80;;;;;;5077887;28;20557;-74
2022/06/28 09:30:04;;;;;;;6.40;4.30;;;35.90;68.40;;;;;;5077833;28;20204;-73
2022/06/28 09:32:35;;;;;;;5.72;4.40;;;36.00;68.60;;;;;;5096677;28;20182;-73
2022/06/28 09:35:09;;;;;;;6.25;4.78;;;35.90;68.40;;;;;;5079494;28;20193;-74
2022/06/28 09:37:52;;;;;;;5.43;4.22;;;35.70;67.20;;;;;;5096156;28;20182;-74
2022/06/28 09:40:28;;;;;;;6.65;4.22;;;35.80;67.80;;;;;;5060570;28;20650;-74
2022/06/28 09:43:10;;;;;;;7.45;4.47;;;35.20;67.30;;;;;;5078056;28;20602;-75
2022/06/28 09:45:40;;;;;;;5.45;4.45;;;35.60;68.10;;;;;;5077091;28;20284;-74
2022/06/28 09:48:09;;;;;;;6.25;4.60;;;35.70;68.50;;;;;;5077338;28;20232;-79
2022/06/28 09:50:36;;;;;;;6.13;4.95;;;35.90;67.70;;;;;;5077369;28;20186;-76
2022/06/28 09:53:05;;;;;;;11.30;4.85;;;36.10;66.00;;;;;;5095708;28;20229;-75
2022/06/28 09:55:37;;;;;;;7.57;5.20;;;36.20;65.40;;;;;;5077224;28;20276;-75
2022/06/28 09:58:04;;;;;;;7.90;4.88;;;36.10;66.70;;;;;;5077026;28;20233;-75
2022/06/28 10:00:34;;;;;;;6.35;4.93;;;36.20;66.30;;;;;;5076945;28;20299;-75
2022/06/28 10:03:02;;;;;;;6.72;4.45;;;35.90;66.70;;;;;;5077062;28;20545;-73
2022/06/28 10:05:29;;;;;;;4.95;4.30;;;35.90;66.20;;;;;;5076915;28;20206;-75
2022/06/28 10:07:58;;;;;;;6.43;4.57;;;36.20;64.50;;;;;;5094923;28;20259;-74
2022/06/28 10:10:25;;;;;;;8.18;4.60;;;36.30;64.30;;;;;;5095176;28;20654;-75
2022/06/28 10:15:45;;;;;;;7.22;4.55;;;36.30;64.90;;;;;;5095073;28;20190;-75
2022/06/28 10:18:17;;;;;;;5.32;4.10;;;36.70;63.80;;;;;;5095325;28;20184;-76
2022/06/28 10:20:46;;;;;;;5.18;4.25;;;36.70;62.20;;;;;;5076708;28;20213;-75
2022/06/28 10:23:46;;;;;;;6.05;4.15;;;36.60;61.60;;;;;;5076558;28;20292;-72
2022/06/28 10:26:16;;;;;;;7.97;4.18;;;36.80;60.80;;;;;;5078454;28;20205;-73
2022/06/28 10:29:05;;;;;;;6.55;4.47;;;36.70;61.30;;;;;;5077628;28;20546;-74
2022/06/28 10:31:43;;;;;;;8.30;3.95;;;36.90;60.00;;;;;;5075738;28;20201;-72
2022/06/28 10:34:15;;;;;;;6.30;4.40;;;37.30;58.30;;;;;;5094992;28;20182;-73
2022/06/28 10:36:46;;;;;;;5.10;4.00;;;37.20;56.50;;;;;;5076176;28;20198;-73
2022/06/28 10:39:17;;;;;;;6.32;4.15;;;37.00;57.90;;;;;;5076587;28;20192;-74
2022/06/28 10:41:53;;;;;;;4.53;3.88;;;37.40;58.80;;;;;;5095267;28;20197;-74
2022/06/28 10:44:26;;;;;;;6.43;3.78;;;38.00;58.40;;;;;;5060385;28;20193;-73
2022/06/28 10:47:05;;;;;;;4.93;3.90;;;37.80;55.60;;;;;;5059963;28;20292;-73
2022/06/28 10:49:44;;;;;;;4.43;3.85;;;38.00;56.90;;;;;;5075861;28;20256;-73
2022/06/28 10:52:17;;;;;;;4.18;3.78;;;38.40;57.10;;;;;;5072493;28;20570;-75
2022/06/28 10:54:56;;;;;;;6.53;3.60;;;38.30;55.90;;;;;;5075973;28;20209;-76
2022/06/28 10:57:33;;;;;;;6.78;4.00;;;38.70;55.40;;;;;;5078945;28;20193;-75
2022/06/28 11:00:06;;;;;;;8.52;3.83;;;38.40;56.00;;;;;;5095105;28;20184;-74
2022/06/28 11:02:52;;;;;;;4.35;3.70;;;38.80;55.00;;;;;;5075675;28;20194;-75
2022/06/28 11:05:41;;;;;;;4.30;3.85;;;38.70;53.80;;;;;;5059265;28;20193;-74
2022/06/28 11:08:11;;;;;;;4.90;3.90;;;38.60;53.00;;;;;;5075400;28;20269;-79
2022/06/28 11:11:04;;;;;;;5.13;3.90;;;39.00;53.80;;;;;;5076727;28;20198;-77
2022/06/28 11:13:32;;;;;;;5.03;3.85;;;39.10;53.30;;;;;;5094311;28;20189;-75
2022/06/28 11:15:59;;;;;;;4.97;3.85;;;39.00;54.20;;;;;;5076283;28;20193;-74
2022/06/28 11:18:27;;;;;;;6.30;3.70;;;39.00;52.80;;;;;;5077119;28;20572;-72
2022/06/28 11:20:56;;;;;;;4.45;4.00;;;39.20;51.80;;;;;;5077211;28;20201;-71
2022/06/28 11:23:31;;;;;;;5.82;3.80;;;38.90;52.10;;;;;;5076524;28;20197;-72
2022/06/28 11:29:01;;;;;;;5.95;3.50;;;39.60;51.50;;;;;;5093188;28;20212;-72
2022/06/28 11:31:29;;;;;;;4.88;3.53;;;40.00;52.40;;;;;;5093578;28;20182;-72
2022/06/28 11:33:58;;;;;;;5.57;3.70;;;39.90;50.80;;;;;;5093550;28;20216;-75
2022/06/28 11:36:30;;;;;;;5.05;4.07;;;40.30;51.40;;;;;;5093802;28;20197;-75
2022/06/28 11:39:17;;;;;;;4.40;3.72;;;40.40;50.40;;;;;;5058267;28;20216;-76
2022/06/28 11:41:51;;;;;;;6.20;4.10;;;40.10;49.70;;;;;;5093361;28;20185;-74
2022/06/28 11:44:19;;;;;;;5.55;3.58;;;40.40;48.50;;;;;;5075241;28;20197;-73
2022/06/28 11:46:50;;;;;;;4.43;3.60;;;40.80;49.50;;;;;;5076558;28;20309;-78
2022/06/28 11:49:30;;;;;;;9.60;4.30;;;40.70;48.60;;;;;;5094727;28;20208;-76
2022/06/28 11:51:57;;;;;;;4.85;4.18;;;41.00;49.20;;;;;;5076220;28;20226;-78
2022/06/28 11:54:25;;;;;;;4.97;3.90;;;41.30;47.40;;;;;;5077881;28;20189;-78
2022/06/28 11:56:53;;;;;;;4.40;3.65;;;41.60;48.00;;;;;;5093973;28;20188;-71
2022/06/28 11:59:40;;;;;;;5.28;4.20;;;41.40;47.00;;;;;;5074597;28;20198;-72
2022/06/28 12:02:07;;;;;;;5.63;3.95;;;40.60;47.80;;;;;;5092800;28;20705;-72
2022/06/28 12:04:40;;;;;;;9.10;4.20;;;40.10;49.00;;;;;;5074654;28;20719;-73
2022/06/28 12:07:07;;;;;;;5.95;4.05;;;40.40;49.70;;;;;;5074544;28;20274;-70
2022/06/28 12:09:44;;;;;;;4.40;4.00;;;40.80;48.50;;;;;;5092573;28;20221;-71
2022/06/28 12:12:11;;;;;;;9.13;4.20;;;39.80;47.70;;;;;;5065062;28;20185;-71
2022/06/28 12:14:39;;;;;;;6.43;4.00;;;40.10;49.90;;;;;;5069047;28;20600;-72
2022/06/28 12:17:06;;;;;;;5.38;4.47;;;39.70;48.10;;;;;;5067239;28;20209;-72
2022/06/28 12:19:35;;;;;;;5.20;4.32;;;39.20;48.10;;;;;;5060299;28;20197;-72
2022/06/28 12:22:10;;;;;;;4.65;4.18;;;39.00;48.50;;;;;;5072634;28;20190;-72
2022/06/28 12:24:38;;;;;;;5.82;4.10;;;38.70;49.80;;;;;;5074691;28;20252;-70
2022/06/28 12:27:05;;;;;;;7.10;4.20;;;38.90;50.80;;;;;;5074662;28;20194;-71
2022/06/28 12:29:33;;;;;;;7.70;4.60;;;38.90;49.10;;;;;;5092517;28;20287;-71
2022/06/28 12:32:00;;;;;;;4.80;4.40;;;38.30;49.70;;;;;;5092680;28;20562;-71
2022/06/28 12:34:27;;;;;;;6.07;4.03;;;38.20;50.60;;;;;;5074401;28;20639;-71
2022/06/28 12:36:54;;;;;;;6.72;4.55;;;37.80;50.40;;;;;;5074784;28;20284;-71
2022/06/28 12:39:21;;;;;;;6.50;4.45;;;36.70;51.90;;;;;;5074308;28;20286;-69
2022/06/28 12:41:51;;;;;;;5.93;4.68;;;36.00;53.30;;;;;;5074299;28;20208;-71
2022/06/28 12:44:18;;;;;;;6.30;4.50;;;35.80;55.00;;;;;;5074207;28;20206;-71
2022/06/28 12:46:45;;;;;;;6.07;4.72;;;36.20;54.10;;;;;;5074983;28;20190;-72
2022/06/28 12:49:13;;;;;;;5.72;4.35;;;36.60;52.40;;;;;;5074588;28;20308;-70
2022/06/28 12:51:39;;;;;;;5.75;4.97;;;37.00;52.80;;;;;;5074404;28;20201;-71
2022/06/28 12:54:07;;;;;;;7.20;4.70;;;36.80;52.60;;;;;;5093453;28;20194;-72
2022/06/28 12:56:34;;;;;;;6.90;4.85;;;36.70;53.20;;;;;;5078306;28;20371;-70
2022/06/28 12:59:01;;;;;;;5.25;4.65;;;36.60;53.70;;;;;;5078262;28;20197;-71
2022/06/28 13:01:27;;;;;;;5.45;4.53;;;36.40;53.40;;;;;;5078036;28;20193;-69
2022/06/28 13:03:55;;;;;;;5.32;4.53;;;36.40;53.70;;;;;;5078057;28;20197;-71
2022/06/28 13:06:22;;;;;;;7.05;4.90;;;36.10;53.70;;;;;;5075553;28;20213;-73
2022/06/28 13:08:55;;;;;;;5.05;4.45;;;35.70;54.10;;;;;;5074229;28;20695;-79
2022/06/28 13:11:22;;;;;;;6.07;4.65;;;35.60;54.70;;;;;;5074623;28;20210;-79